createdAt,value
2023-03-27T00:04:04.481Z,2.35
2023-03-27T00:08:59.659Z,4.95
2023-03-27T00:13:55.453Z,2.35
2023-03-27T00:18:58.135Z,2.10
2023-03-27T00:24:03.787Z,6.05
2023-03-27T00:29:02.818Z,2.58
2023-03-27T00:34:03.653Z,2.38
2023-03-27T00:38:57.447Z,2.95
2023-03-27T00:44:02.089Z,1.98
2023-03-27T00:49:04.823Z,3.00
2023-03-27T00:53:59.730Z,3.00
2023-03-27T00:58:58.946Z,1.90
2023-03-27T01:04:21.856Z,2.85
2023-03-27T01:09:20.623Z,2.05
2023-03-27T01:14:34.166Z,2.40
2023-03-27T01:20:02.973Z,1.70
2023-03-27T01:25:35.163Z,2.28
2023-03-27T01:30:32.634Z,1.65
2023-03-27T01:36:03.349Z,1.92
2023-03-27T01:41:05.986Z,1.93
2023-03-27T01:46:08.840Z,3.03
2023-03-27T01:51:15.540Z,2.17
2023-03-27T01:56:19.752Z,1.98
2023-03-27T02:01:21.627Z,2.15
2023-03-27T02:06:27.806Z,2.53
2023-03-27T02:11:52.142Z,3.60
2023-03-27T02:16:56.576Z,6.72
2023-03-27T02:22:53.876Z,5.03
2023-03-27T02:28:12.010Z,4.95
2023-03-27T02:34:06.197Z,2.83
2023-03-27T02:39:19.219Z,2.38
2023-03-27T02:44:59.576Z,2.60
2023-03-27T02:49:57.803Z,3.67
2023-03-27T02:55:07.676Z,6.40
2023-03-27T03:00:25.892Z,3.42
2023-03-27T03:06:06.823Z,3.90
2023-03-27T03:11:26.623Z,3.38
2023-03-27T03:16:25.779Z,2.45
2023-03-27T03:21:32.459Z,2.13
2023-03-27T03:26:32.709Z,3.08
2023-03-27T03:31:28.268Z,4.78
2023-03-27T03:36:26.127Z,4.38
2023-03-27T03:41:56.321Z,2.53
2023-03-27T03:47:02.402Z,3.75
2023-03-27T03:52:39.097Z,3.25
2023-03-27T03:58:12.252Z,2.40
2023-03-27T04:10:52.261Z,2.72
2023-03-27T04:21:39.986Z,4.53
2023-03-27T04:27:06.886Z,3.25
2023-03-27T04:32:35.820Z,3.08
2023-03-27T04:38:05.950Z,2.47
2023-03-27T04:48:47.470Z,3.65
2023-03-27T04:53:53.453Z,3.30
2023-03-27T04:59:09.259Z,3.15
2023-03-27T05:04:35.818Z,2.85
2023-03-27T05:09:50.701Z,2.65
2023-03-27T05:20:50.468Z,3.08
2023-03-27T05:31:36.298Z,2.53
2023-03-27T05:37:20.991Z,3.95
2023-03-27T05:43:08.633Z,2.92
2023-03-27T05:53:41.663Z,3.10
2023-03-27T05:59:23.310Z,3.55
2023-03-27T06:04:34.375Z,3.80
2023-03-27T06:10:05.145Z,4.20
2023-03-27T06:16:06.770Z,6.00
2023-03-27T06:22:07.098Z,3.70
2023-03-27T06:27:42.215Z,4.80
2023-03-27T06:33:23.601Z,5.93
2023-03-27T06:38:48.833Z,5.05
2023-03-27T06:43:48.615Z,4.57
2023-03-27T06:55:48.961Z,4.55
2023-03-27T07:00:49.937Z,4.88
2023-03-27T07:05:51.132Z,5.07
2023-03-27T07:16:08.482Z,6.70
2023-03-27T07:21:04.612Z,5.18
2023-03-27T07:26:02.294Z,4.88
2023-03-27T07:31:42.005Z,4.68
2023-03-27T07:36:39.325Z,4.72
2023-03-27T07:41:48.331Z,6.18
2023-03-27T07:46:59.673Z,5.85
2023-03-27T07:51:55.383Z,9.13
2023-03-27T07:56:54.177Z,5.95
2023-03-27T08:01:57.964Z,4.80
2023-03-27T08:07:46.284Z,5.97
2023-03-27T08:13:02.944Z,4.47
2023-03-27T08:18:07.274Z,4.95
2023-03-27T08:23:09.993Z,4.38
2023-03-27T08:28:14.573Z,6.18
2023-03-27T08:33:35.005Z,6.30
2023-03-27T08:43:49.561Z,5.18
2023-03-27T08:49:16.852Z,4.55
2023-03-27T08:54:34.739Z,4.80
2023-03-27T08:59:34.352Z,5.38
2023-03-27T09:04:56.165Z,5.60
2023-03-27T09:10:02.062Z,3.95
2023-03-27T09:15:11.060Z,8.40
2023-03-27T09:20:21.091Z,4.80
2023-03-27T09:25:28.602Z,6.22
2023-03-27T09:30:34.572Z,6.57
2023-03-27T09:35:54.266Z,4.97
2023-03-27T09:40:54.271Z,4.25
2023-03-27T09:45:56.533Z,4.53
2023-03-27T09:51:05.576Z,3.85
2023-03-27T09:56:25.895Z,3.95
2023-03-27T10:01:34.888Z,6.43
2023-03-27T10:06:58.104Z,4.30
2023-03-27T10:12:29.390Z,7.43
2023-03-27T10:17:39.488Z,4.20
2023-03-27T10:22:59.794Z,5.50
2023-03-27T10:28:57.152Z,5.45
2023-03-27T10:33:58.351Z,4.03
2023-03-27T10:39:21.236Z,7.15
2023-03-27T10:44:48.081Z,5.50
2023-03-27T10:50:22.451Z,4.72
2023-03-27T10:55:48.964Z,4.78
2023-03-27T11:01:05.552Z,3.92
2023-03-27T11:06:16.024Z,6.55
2023-03-27T11:11:26.165Z,4.10
2023-03-27T11:16:47.436Z,4.25
2023-03-27T11:28:36.403Z,6.05
2023-03-27T11:35:04.207Z,5.93
2023-03-27T11:41:09.465Z,5.80
2023-03-27T11:53:42.011Z,5.72
2023-03-27T11:58:43.528Z,6.53
2023-03-27T12:04:10.567Z,6.22
2023-03-27T12:09:53.164Z,5.57
2023-03-27T12:15:34.711Z,6.15
2023-03-27T12:21:01.844Z,6.25
2023-03-27T12:26:32.456Z,8.32
2023-03-27T12:32:23.469Z,11.02
2023-03-27T12:37:51.325Z,10.05
2023-03-27T12:43:57.401Z,6.28
2023-03-27T12:49:47.693Z,6.25
2023-03-27T12:55:58.629Z,7.70
2023-03-27T13:21:31.132Z,4.25
2023-03-27T13:40:28.282Z,5.53
2023-03-27T13:45:50.434Z,6.70
2023-03-27T13:52:30.047Z,6.38
2023-03-27T14:04:21.289Z,9.50
2023-03-27T14:10:03.479Z,5.60
2023-03-27T14:22:35.058Z,6.72
2023-03-27T14:27:42.222Z,8.77
2023-03-27T14:46:09.398Z,6.45
2023-03-27T14:51:55.958Z,6.88
2023-03-27T15:04:07.477Z,6.43
2023-03-27T15:09:33.771Z,9.07
2023-03-27T15:15:13.636Z,6.63
2023-03-27T15:20:18.285Z,7.25
2023-03-27T15:25:28.048Z,6.70
2023-03-27T15:30:46.411Z,7.00
2023-03-27T15:36:05.156Z,8.55
2023-03-27T15:41:48.941Z,13.30
2023-03-27T15:47:09.358Z,6.85
2023-03-27T15:52:39.278Z,17.48
2023-03-27T16:04:15.606Z,10.20
2023-03-27T16:09:29.166Z,12.55
2023-03-27T16:14:44.048Z,10.75
2023-03-27T16:20:05.369Z,9.23
2023-03-27T16:25:39.397Z,13.00
2023-03-27T16:30:39.656Z,8.40
2023-03-27T16:41:55.188Z,8.32
2023-03-27T16:47:06.980Z,15.18
2023-03-27T16:52:20.643Z,12.35
2023-03-27T17:03:08.738Z,7.88
2023-03-27T17:08:44.254Z,9.27
2023-03-27T17:14:38.616Z,9.57
2023-03-27T17:20:36.406Z,9.57
2023-03-27T17:26:12.577Z,10.73
2023-03-27T17:32:50.454Z,12.43
2023-03-27T17:38:05.637Z,10.65
2023-03-27T17:43:20.811Z,9.80
2023-03-27T17:48:29.400Z,13.90
2023-03-27T17:53:46.661Z,12.52
2023-03-27T17:59:05.314Z,16.00
2023-03-27T18:04:01.499Z,12.45
2023-03-27T18:09:13.596Z,10.65
2023-03-27T18:14:48.976Z,10.98
2023-03-27T18:20:04.454Z,14.25
2023-03-27T18:25:25.658Z,11.95
2023-03-27T18:36:35.096Z,11.40
2023-03-27T18:42:05.594Z,11.13
2023-03-27T18:47:35.970Z,10.90
2023-03-27T18:52:42.216Z,12.20
2023-03-27T18:57:46.667Z,11.25
2023-03-27T19:02:46.736Z,10.10
2023-03-27T19:12:52.527Z,13.20
2023-03-27T19:18:16.571Z,13.80
2023-03-27T19:23:40.501Z,12.20
2023-03-27T19:29:06.781Z,14.50
2023-03-27T19:34:17.027Z,13.77
2023-03-27T19:39:21.679Z,14.23
2023-03-27T19:44:45.958Z,12.20
2023-03-27T19:55:00.127Z,13.35
2023-03-27T20:06:07.810Z,12.55
2023-03-27T20:11:12.353Z,15.10
2023-03-27T20:21:38.899Z,12.35
2023-03-27T20:26:53.210Z,11.80
2023-03-27T20:38:26.395Z,11.88
2023-03-27T20:43:56.612Z,9.27
2023-03-27T20:49:01.444Z,9.25
2023-03-27T20:54:11.428Z,6.80
2023-03-27T20:59:25.591Z,9.70
2023-03-27T21:04:46.941Z,7.68
2023-03-27T21:10:04.630Z,7.68
2023-03-27T21:14:58.419Z,5.03
2023-03-27T21:19:55.857Z,8.55
2023-03-27T21:24:59.614Z,7.78
2023-03-27T21:35:23.703Z,6.57
2023-03-27T21:40:43.813Z,7.22
2023-03-27T21:46:19.502Z,5.22
2023-03-27T21:52:01.010Z,5.50
2023-03-27T21:57:20.326Z,6.45
2023-03-27T22:09:20.866Z,6.57
2023-03-27T22:14:37.380Z,5.88
2023-03-27T22:19:58.243Z,5.80
2023-03-27T22:25:01.840Z,8.32
2023-03-27T22:30:22.876Z,14.02
2023-03-27T22:40:53.873Z,12.27
2023-03-27T22:45:47.840Z,9.00
2023-03-27T22:50:56.875Z,6.85
2023-03-27T22:56:03.269Z,6.50
2023-03-27T23:01:12.421Z,6.07
2023-03-27T23:06:19.930Z,6.85
2023-03-27T23:11:25.899Z,7.13
2023-03-27T23:16:28.755Z,7.20
2023-03-27T23:21:31.915Z,7.57
2023-03-27T23:26:32.990Z,6.43
2023-03-27T23:31:42.111Z,7.13
2023-03-27T23:36:40.834Z,9.38
2023-03-27T23:47:13.933Z,11.43
2023-03-27T23:52:10.229Z,4.45
2023-03-27T23:57:31.811Z,6.55
